createdAt,value
2022-11-16T00:01:39.898Z,63.66
2022-11-16T00:04:06.783Z,62.02
2022-11-16T00:06:33.479Z,61.06
2022-11-16T00:09:21.047Z,60.59
2022-11-16T00:11:55.131Z,58.19
2022-11-16T00:14:24.578Z,56.52
2022-11-16T00:16:51.679Z,58.66
2022-11-16T00:19:19.059Z,62.55
2022-11-16T00:21:46.071Z,65.11
2022-11-16T00:24:15.395Z,63.48
2022-11-16T00:26:42.316Z,61.42
2022-11-16T00:29:25.177Z,60.42
2022-11-16T00:31:53.552Z,57.35
2022-11-16T00:34:21.989Z,57.11
2022-11-16T00:36:48.948Z,58.15
2022-11-16T00:39:19.207Z,62.68
2022-11-16T00:41:47.674Z,65.71
2022-11-16T00:44:14.587Z,63.58
2022-11-16T00:46:42.271Z,61.40
2022-11-16T00:49:09.281Z,58.61
2022-11-16T00:51:37.049Z,57.60
2022-11-16T00:54:06.198Z,59.07
2022-11-16T00:56:33.135Z,63.19
2022-11-16T00:58:59.738Z,65.61
2022-11-16T01:01:26.567Z,64.44
2022-11-16T01:03:53.271Z,63.36
2022-11-16T01:06:20.126Z,62.68
2022-11-16T01:08:46.824Z,61.74
2022-11-16T01:11:35.206Z,60.72
2022-11-16T01:14:06.553Z,60.72
2022-11-16T01:16:33.703Z,57.67
2022-11-16T01:19:00.563Z,57.25
2022-11-16T01:21:27.563Z,58.48
2022-11-16T01:23:56.482Z,63.40
2022-11-16T01:26:24.678Z,65.88
2022-11-16T01:28:51.804Z,65.08
2022-11-16T01:31:19.079Z,64.23
2022-11-16T01:33:45.723Z,62.84
2022-11-16T01:36:14.184Z,61.29
2022-11-16T01:38:46.675Z,60.43
2022-11-16T01:41:21.724Z,59.92
2022-11-16T01:44:06.804Z,58.73
2022-11-16T01:46:33.465Z,58.28
2022-11-16T01:49:05.138Z,63.07
2022-11-16T01:51:34.149Z,64.33
2022-11-16T01:54:08.056Z,63.46
2022-11-16T01:56:38.097Z,60.87
2022-11-16T01:59:05.849Z,58.11
2022-11-16T02:01:32.577Z,58.05
2022-11-16T02:03:59.242Z,61.08
2022-11-16T02:06:25.774Z,64.34
2022-11-16T02:09:58.533Z,64.00
2022-11-16T02:12:37.158Z,60.24
2022-11-16T02:15:09.652Z,56.23
2022-11-16T02:18:17.652Z,57.96
2022-11-16T02:21:19.184Z,61.16
2022-11-16T02:24:19.388Z,64.96
2022-11-16T02:27:15.318Z,61.37
2022-11-16T02:29:52.730Z,57.45
2022-11-16T02:32:27.302Z,58.21
2022-11-16T02:35:05.308Z,59.82
2022-11-16T02:37:39.287Z,64.92
2022-11-16T02:40:12.471Z,64.43
2022-11-16T02:43:00.256Z,60.54
2022-11-16T02:45:35.953Z,56.65
2022-11-16T02:48:14.455Z,57.90
2022-11-16T02:50:43.275Z,59.99
2022-11-16T02:53:10.059Z,64.34
2022-11-16T02:55:37.479Z,64.61
2022-11-16T02:58:10.635Z,63.39
2022-11-16T03:01:02.012Z,62.28
2022-11-16T03:03:41.033Z,61.26
2022-11-16T03:06:17.514Z,58.46
2022-11-16T03:08:55.442Z,57.03
2022-11-16T03:11:41.582Z,58.83
2022-11-16T03:14:19.669Z,59.83
2022-11-16T03:16:52.257Z,65.09
2022-11-16T03:19:34.259Z,67.19
2022-11-16T03:22:24.849Z,62.06
2022-11-16T03:24:52.276Z,58.77
2022-11-16T03:27:37.887Z,57.40
2022-11-16T03:30:12.195Z,59.26
2022-11-16T03:32:53.728Z,64.38
2022-11-16T03:35:52.600Z,65.65
2022-11-16T03:38:22.787Z,63.39
2022-11-16T03:40:51.031Z,61.48
2022-11-16T03:43:20.273Z,58.31
2022-11-16T03:45:46.986Z,57.02
2022-11-16T03:48:13.481Z,57.71
2022-11-16T03:50:42.226Z,60.30
2022-11-16T03:53:09.206Z,65.17
2022-11-16T03:55:36.264Z,66.25
2022-11-16T03:58:03.695Z,64.35
2022-11-16T04:00:30.192Z,61.22
2022-11-16T04:02:56.680Z,56.70
2022-11-16T04:05:42.496Z,54.99
2022-11-16T04:08:35.860Z,56.73
2022-11-16T04:11:21.780Z,59.46
2022-11-16T04:14:09.802Z,61.37
2022-11-16T04:16:54.786Z,65.86
2022-11-16T04:19:39.689Z,63.89
2022-11-16T04:22:38.572Z,54.83
2022-11-16T04:25:15.508Z,55.07
2022-11-16T04:28:01.104Z,57.34
2022-11-16T04:30:47.715Z,58.05
2022-11-16T04:33:32.809Z,63.50
2022-11-16T04:36:20.581Z,60.70
2022-11-16T04:38:47.424Z,56.37
2022-11-16T04:41:32.529Z,56.31
2022-11-16T04:43:58.966Z,58.63
2022-11-16T04:46:44.132Z,59.44
2022-11-16T04:49:10.603Z,62.51
2022-11-16T04:51:37.068Z,63.80
2022-11-16T04:54:03.749Z,59.75
2022-11-16T04:56:30.317Z,55.08
2022-11-16T04:58:56.799Z,56.04
2022-11-16T05:01:43.276Z,58.40
2022-11-16T05:04:09.989Z,60.17
2022-11-16T05:06:36.549Z,61.42
2022-11-16T05:09:03.166Z,64.89
2022-11-16T05:11:29.701Z,63.12
2022-11-16T05:13:56.173Z,58.37
2022-11-16T05:16:22.599Z,56.11
2022-11-16T05:19:09.047Z,56.38
2022-11-16T05:21:35.565Z,57.85
2022-11-16T05:24:21.022Z,60.14
2022-11-16T05:26:47.544Z,64.52
2022-11-16T05:29:14.091Z,64.06
2022-11-16T05:31:40.769Z,59.42
2022-11-16T05:34:09.126Z,56.83
2022-11-16T05:36:35.611Z,56.81
2022-11-16T05:39:03.170Z,59.20
2022-11-16T05:41:30.171Z,60.86
2022-11-16T05:43:56.793Z,63.85
2022-11-16T05:46:24.043Z,65.83
2022-11-16T05:48:50.706Z,63.37
2022-11-16T05:51:17.204Z,59.03
2022-11-16T05:53:43.966Z,55.57
2022-11-16T05:56:13.715Z,56.78
2022-11-16T05:58:40.290Z,58.17
2022-11-16T06:01:07.416Z,59.75
2022-11-16T06:03:35.800Z,63.77
2022-11-16T06:06:04.343Z,66.62
2022-11-16T06:08:31.468Z,64.07
2022-11-16T06:11:03.879Z,62.12
2022-11-16T06:13:32.137Z,58.09
2022-11-16T06:15:59.947Z,55.47
2022-11-16T06:18:26.805Z,56.76
2022-11-16T06:20:54.383Z,58.69
2022-11-16T06:23:21.621Z,62.78
2022-11-16T06:25:54.448Z,64.93
2022-11-16T06:28:21.988Z,61.81
2022-11-16T06:30:49.195Z,57.58
2022-11-16T06:33:16.550Z,55.76
2022-11-16T06:35:43.179Z,56.08
2022-11-16T06:38:09.688Z,58.64
2022-11-16T06:40:37.892Z,59.52
2022-11-16T06:43:04.339Z,64.55
2022-11-16T06:45:30.767Z,65.18
2022-11-16T06:47:57.200Z,63.81
2022-11-16T06:50:23.643Z,58.79
2022-11-16T06:52:50.105Z,55.51
2022-11-16T06:55:19.303Z,56.35
2022-11-16T06:57:45.730Z,57.64
2022-11-16T07:00:13.231Z,61.08
2022-11-16T07:02:39.963Z,64.01
2022-11-16T07:05:07.330Z,64.78
2022-11-16T07:07:34.020Z,61.60
2022-11-16T07:10:00.634Z,58.02
2022-11-16T07:12:27.198Z,55.48
2022-11-16T07:14:53.704Z,57.38
2022-11-16T07:17:20.098Z,58.96
2022-11-16T07:19:46.628Z,59.71
2022-11-16T07:22:14.957Z,64.30
2022-11-16T07:24:43.492Z,64.55
2022-11-16T07:27:09.935Z,61.88
2022-11-16T07:29:36.372Z,58.80
2022-11-16T07:32:02.863Z,56.30
2022-11-16T07:34:29.368Z,56.95
2022-11-16T07:36:56.039Z,58.80
2022-11-16T07:39:22.660Z,60.94
2022-11-16T07:41:52.619Z,65.48
2022-11-16T07:44:20.050Z,66.96
2022-11-16T07:46:48.110Z,62.59
2022-11-16T07:49:18.061Z,57.94
2022-11-16T07:51:45.587Z,56.04
2022-11-16T07:54:14.114Z,58.23
2022-11-16T07:56:41.537Z,59.92
2022-11-16T07:59:08.456Z,62.64
2022-11-16T08:01:35.121Z,67.05
2022-11-16T08:04:02.195Z,65.21
2022-11-16T08:06:31.652Z,61.42
2022-11-16T08:08:59.225Z,58.10
2022-11-16T08:11:26.676Z,57.81
2022-11-16T08:13:53.272Z,59.93
2022-11-16T08:16:22.447Z,64.46
2022-11-16T08:18:49.132Z,64.46
2022-11-16T08:21:17.736Z,61.60
2022-11-16T08:23:45.063Z,57.55
2022-11-16T08:26:17.872Z,57.27
2022-11-16T08:28:47.679Z,58.47
2022-11-16T08:31:23.484Z,60.63
2022-11-16T08:33:51.434Z,65.48
2022-11-16T08:36:19.014Z,66.38
2022-11-16T08:38:50.623Z,63.80
2022-11-16T08:41:19.125Z,57.32
2022-11-16T08:43:46.727Z,54.72
2022-11-16T08:46:14.148Z,56.83
2022-11-16T08:48:41.159Z,60.08
2022-11-16T08:51:19.354Z,59.55
2022-11-16T08:53:48.704Z,65.74
2022-11-16T08:56:17.789Z,70.26
2022-11-16T08:58:46.466Z,62.33
2022-11-16T09:01:17.295Z,54.67
2022-11-16T09:03:50.933Z,53.27
2022-11-16T09:06:28.468Z,55.71
2022-11-16T09:08:55.666Z,56.83
2022-11-16T09:11:25.333Z,59.60
2022-11-16T09:13:54.373Z,65.80
2022-11-16T09:16:22.508Z,68.42
2022-11-16T09:18:51.371Z,56.34
2022-11-16T09:21:25.378Z,51.87
2022-11-16T09:23:54.276Z,53.08
2022-11-16T09:26:22.608Z,55.03
2022-11-16T09:29:00.678Z,57.09
2022-11-16T09:31:30.592Z,65.10
2022-11-16T09:33:58.132Z,66.79
2022-11-16T09:36:28.162Z,54.58
2022-11-16T09:39:29.407Z,53.23
2022-11-16T09:41:58.034Z,55.38
2022-11-16T09:44:30.915Z,58.90
2022-11-16T09:47:00.527Z,66.04
2022-11-16T09:49:42.105Z,65.28
2022-11-16T09:52:30.273Z,57.12
2022-11-16T09:55:00.787Z,55.07
2022-11-16T09:57:35.922Z,56.95
2022-11-16T10:00:16.138Z,60.10
2022-11-16T10:02:53.485Z,65.38
2022-11-16T10:05:45.657Z,66.61
2022-11-16T10:08:24.687Z,55.93
2022-11-16T10:11:07.773Z,54.92
2022-11-16T10:14:05.323Z,58.02
2022-11-16T10:16:59.527Z,59.80
2022-11-16T10:20:04.573Z,64.60
2022-11-16T10:23:04.066Z,69.10
2022-11-16T10:25:49.895Z,61.23
2022-11-16T10:28:46.776Z,55.01
2022-11-16T10:31:26.018Z,54.21
2022-11-16T10:33:57.377Z,56.71
2022-11-16T10:36:31.539Z,59.55
2022-11-16T10:39:00.326Z,65.23
2022-11-16T10:41:40.710Z,64.55
2022-11-16T10:44:36.963Z,61.01
2022-11-16T10:47:21.651Z,57.66
2022-11-16T10:50:06.580Z,56.59
2022-11-16T10:52:36.440Z,59.51
2022-11-16T10:55:03.727Z,63.64
2022-11-16T10:58:04.914Z,66.31
2022-11-16T11:00:55.151Z,61.26
2022-11-16T11:03:31.887Z,57.65
2022-11-16T11:05:59.483Z,57.65
2022-11-16T11:08:31.099Z,60.02
2022-11-16T11:11:23.951Z,65.40
2022-11-16T11:14:16.051Z,66.17
2022-11-16T11:16:42.517Z,63.66
2022-11-16T11:19:27.965Z,60.31
2022-11-16T11:22:00.262Z,57.73
2022-11-16T11:24:45.085Z,56.34
2022-11-16T11:27:12.894Z,57.32
2022-11-16T11:29:42.661Z,59.32
2022-11-16T11:32:23.795Z,63.12
2022-11-16T11:34:55.721Z,66.66
2022-11-16T11:37:31.117Z,59.74
2022-11-16T11:40:19.397Z,56.44
2022-11-16T11:43:03.725Z,55.95
2022-11-16T11:46:05.087Z,58.34
2022-11-16T11:48:51.795Z,60.04
2022-11-16T11:51:30.939Z,65.70
2022-11-16T11:54:00.571Z,65.09
2022-11-16T11:56:31.441Z,62.74
2022-11-16T11:58:58.179Z,57.17
2022-11-16T12:01:32.545Z,54.62
2022-11-16T12:04:07.895Z,56.39
2022-11-16T12:07:14.268Z,57.19
2022-11-16T12:10:20.896Z,60.64
2022-11-16T12:13:25.409Z,66.01
2022-11-16T12:16:31.949Z,65.92
2022-11-16T12:19:23.494Z,62.39
2022-11-16T12:22:11.508Z,55.35
2022-11-16T12:24:52.298Z,55.02
2022-11-16T12:27:50.159Z,56.88
2022-11-16T12:30:21.707Z,58.05
2022-11-16T12:33:21.380Z,60.27
2022-11-16T12:36:31.744Z,66.85
2022-11-16T12:39:23.872Z,64.59
2022-11-16T12:41:59.916Z,55.01
2022-11-16T12:44:48.665Z,53.76
2022-11-16T12:47:54.798Z,56.01
2022-11-16T12:50:52.807Z,58.57
2022-11-16T12:53:36.565Z,60.35
2022-11-16T12:56:19.606Z,67.54
2022-11-16T12:59:26.353Z,65.22
2022-11-16T13:02:20.324Z,55.65
2022-11-16T13:04:57.127Z,53.96
2022-11-16T13:07:33.357Z,55.98
2022-11-16T13:10:13.373Z,58.61
2022-11-16T13:12:48.685Z,60.14
2022-11-16T13:15:21.720Z,67.47
2022-11-16T13:17:58.142Z,71.55
2022-11-16T13:20:46.588Z,57.57
2022-11-16T13:23:32.279Z,52.95
2022-11-16T13:26:40.226Z,54.15
2022-11-16T13:29:35.665Z,56.11
2022-11-16T13:32:19.712Z,57.35
2022-11-16T13:34:52.725Z,59.16
2022-11-16T13:37:37.445Z,61.08
2022-11-16T13:40:04.328Z,69.58
2022-11-16T13:42:45.261Z,68.57
2022-11-16T13:45:22.904Z,56.71
2022-11-16T13:48:16.454Z,52.37
2022-11-16T13:50:53.766Z,53.39
2022-11-16T13:56:29.032Z,58.50
2022-11-16T13:58:58.951Z,61.31
2022-11-16T14:02:00.424Z,66.59
2022-11-16T14:04:58.617Z,66.42
2022-11-16T14:07:44.822Z,57.31
2022-11-16T14:10:32.471Z,52.16
2022-11-16T14:13:04.810Z,53.80
2022-11-16T14:15:40.421Z,55.68
2022-11-16T14:18:06.924Z,58.24
2022-11-16T14:21:00.977Z,60.30
2022-11-16T14:23:48.976Z,62.21
2022-11-16T14:26:24.710Z,69.84
2022-11-16T14:29:13.008Z,63.58
2022-11-16T14:31:57.230Z,55.24
2022-11-16T14:34:39.311Z,53.35
2022-11-16T14:37:35.459Z,54.18
2022-11-16T14:40:18.904Z,57.20
2022-11-16T14:45:58.820Z,66.66
2022-11-16T14:48:26.877Z,66.43
2022-11-16T14:51:18.092Z,54.23
2022-11-16T14:53:53.326Z,51.79
2022-11-16T14:56:20.417Z,54.06
2022-11-16T14:59:05.106Z,56.33
2022-11-16T15:01:38.912Z,59.87
2022-11-16T15:04:11.615Z,60.26
2022-11-16T15:06:45.088Z,62.70
2022-11-16T15:09:29.926Z,72.43
2022-11-16T15:12:17.482Z,61.49
2022-11-16T15:14:54.229Z,52.84
2022-11-16T15:17:30.149Z,52.61
2022-11-16T15:20:22.256Z,55.10
2022-11-16T15:22:56.282Z,55.99
2022-11-16T15:25:35.839Z,58.51
2022-11-16T15:28:12.889Z,65.53
2022-11-16T15:30:39.974Z,65.58
2022-11-16T15:33:17.661Z,56.39
2022-11-16T15:35:44.820Z,52.08
2022-11-16T15:38:27.829Z,54.97
2022-11-16T15:40:58.154Z,55.53
2022-11-16T15:43:33.725Z,58.14
2022-11-16T15:46:02.945Z,59.52
2022-11-16T15:48:30.565Z,66.12
2022-11-16T15:51:14.632Z,65.50
2022-11-16T15:53:44.932Z,54.71
2022-11-16T15:56:26.660Z,52.90
2022-11-16T15:58:56.325Z,55.13
2022-11-16T16:01:25.291Z,58.82
2022-11-16T16:04:00.901Z,60.04
2022-11-16T16:06:55.043Z,67.94
2022-11-16T16:09:32.310Z,66.54
2022-11-16T16:12:23.970Z,53.33
2022-11-16T16:14:52.141Z,50.98
2022-11-16T16:17:29.346Z,53.11
2022-11-16T16:20:00.826Z,56.73
2022-11-16T16:22:32.698Z,58.52
2022-11-16T16:25:01.041Z,59.18
2022-11-16T16:27:30.431Z,65.67
2022-11-16T16:30:04.251Z,65.49
2022-11-16T16:32:35.156Z,55.22
2022-11-16T16:35:06.843Z,51.45
2022-11-16T16:37:36.121Z,54.19
2022-11-16T16:40:04.782Z,55.15
2022-11-16T16:42:34.467Z,57.79
2022-11-16T16:45:02.046Z,63.03
2022-11-16T16:47:29.073Z,67.79
2022-11-16T16:49:55.762Z,60.91
2022-11-16T16:52:22.879Z,52.35
2022-11-16T16:54:49.388Z,50.74
2022-11-16T16:57:18.577Z,52.48
2022-11-16T16:59:47.982Z,54.56
2022-11-16T17:02:16.509Z,57.20
2022-11-16T17:04:46.169Z,59.30
2022-11-16T17:07:14.681Z,60.77
2022-11-16T17:09:42.093Z,66.94
2022-11-16T17:12:11.364Z,69.63
2022-11-16T17:14:38.060Z,57.39
2022-11-16T17:17:04.684Z,51.70
2022-11-16T17:19:31.249Z,53.44
2022-11-16T17:21:58.469Z,55.34
2022-11-16T17:24:25.018Z,57.85
2022-11-16T17:26:52.928Z,59.61
2022-11-16T17:29:20.059Z,66.29
2022-11-16T17:31:47.963Z,66.66
2022-11-16T17:34:14.835Z,56.46
2022-11-16T17:36:43.194Z,51.98
2022-11-16T17:39:10.308Z,52.77
2022-11-16T17:41:37.663Z,54.95
2022-11-16T17:44:06.269Z,57.44
2022-11-16T17:46:33.418Z,59.28
2022-11-16T17:49:01.812Z,61.01
2022-11-16T17:51:32.788Z,66.79
2022-11-16T17:54:00.610Z,68.86
2022-11-16T17:56:28.876Z,57.64
2022-11-16T17:58:59.276Z,52.00
2022-11-16T18:01:27.713Z,53.73
2022-11-16T18:03:54.667Z,55.09
2022-11-16T18:06:25.948Z,58.04
2022-11-16T18:08:54.497Z,59.86
2022-11-16T18:11:27.013Z,66.41
2022-11-16T18:13:56.821Z,63.25
2022-11-16T18:16:27.877Z,53.54
2022-11-16T18:19:06.185Z,51.78
2022-11-16T18:21:40.419Z,53.42
2022-11-16T18:24:08.934Z,56.23
2022-11-16T18:26:38.042Z,59.39
2022-11-16T18:29:04.755Z,61.51
2022-11-16T18:31:32.540Z,67.76
2022-11-16T18:34:04.527Z,68.70
2022-11-16T18:36:31.510Z,61.44
2022-11-16T18:39:00.131Z,49.83
2022-11-16T18:41:33.533Z,48.90
2022-11-16T18:44:03.778Z,50.80
2022-11-16T18:46:39.897Z,52.34
2022-11-16T18:49:12.144Z,55.07
2022-11-16T18:51:43.002Z,58.17
2022-11-16T18:54:09.973Z,60.34
2022-11-16T18:56:39.780Z,67.20
2022-11-16T18:59:09.682Z,63.93
2022-11-16T19:01:37.854Z,54.71
2022-11-16T19:04:07.561Z,50.89
2022-11-16T19:06:35.585Z,52.49
2022-11-16T19:09:06.122Z,56.92
2022-11-16T19:11:34.346Z,58.23
2022-11-16T19:14:04.013Z,60.61
2022-11-16T19:16:34.261Z,67.32
2022-11-16T19:19:04.286Z,66.44
2022-11-16T19:21:31.614Z,59.03
2022-11-16T19:24:07.824Z,49.98
2022-11-16T19:26:35.641Z,50.57
2022-11-16T19:29:10.140Z,52.72
2022-11-16T19:31:44.319Z,55.74
2022-11-16T19:34:14.332Z,58.53
2022-11-16T19:36:41.867Z,60.13
2022-11-16T19:39:09.740Z,67.85
2022-11-16T19:41:38.204Z,66.34
2022-11-16T19:44:11.150Z,53.25
2022-11-16T19:46:40.132Z,50.72
2022-11-16T19:49:25.776Z,52.25
2022-11-16T19:52:07.450Z,55.17
2022-11-16T19:54:48.919Z,57.50
2022-11-16T19:57:34.409Z,60.64
2022-11-16T20:00:02.067Z,66.60
2022-11-16T20:02:34.306Z,63.45
2022-11-16T20:05:09.781Z,55.28
2022-11-16T20:10:24.055Z,52.21
2022-11-16T20:12:52.684Z,56.12
2022-11-16T20:15:28.392Z,58.81
2022-11-16T20:18:04.712Z,60.08
2022-11-16T20:20:32.945Z,65.97
2022-11-16T20:23:09.315Z,67.80
2022-11-16T20:25:46.253Z,57.02
2022-11-16T20:28:29.782Z,52.12
2022-11-16T20:31:08.279Z,53.16
2022-11-16T20:33:40.666Z,54.93
2022-11-16T20:36:16.655Z,58.67
2022-11-16T20:38:47.562Z,60.33
2022-11-16T20:41:29.155Z,65.94
2022-11-16T20:44:10.596Z,66.48
2022-11-16T20:46:44.705Z,54.38
2022-11-16T20:49:16.070Z,50.88
2022-11-16T20:51:43.630Z,52.21
2022-11-16T20:54:13.686Z,54.82
2022-11-16T20:56:42.302Z,57.52
2022-11-16T21:01:55.078Z,63.10
2022-11-16T21:04:23.603Z,68.05
2022-11-16T21:06:51.351Z,59.31
2022-11-16T21:09:23.007Z,49.64
2022-11-16T21:12:14.801Z,50.27
2022-11-16T21:14:45.455Z,52.14
2022-11-16T21:17:23.968Z,54.28
2022-11-16T21:20:25.172Z,56.07
2022-11-16T21:22:52.627Z,58.18
2022-11-16T21:25:25.432Z,60.18
2022-11-16T21:27:52.464Z,65.62
2022-11-16T21:30:20.474Z,67.42
2022-11-16T21:32:56.559Z,53.67
2022-11-16T21:35:26.186Z,50.21
2022-11-16T21:38:03.302Z,52.35
2022-11-16T21:40:30.098Z,53.59
2022-11-16T21:42:57.493Z,56.32
2022-11-16T21:45:25.074Z,57.87
2022-11-16T21:47:52.103Z,60.90
2022-11-16T21:50:31.518Z,66.80
2022-11-16T21:52:59.996Z,63.68
2022-11-16T21:55:26.738Z,53.11
2022-11-16T21:57:53.943Z,50.56
2022-11-16T22:00:20.792Z,51.37
2022-11-16T22:02:47.451Z,54.73
2022-11-16T22:05:32.803Z,55.53
2022-11-16T22:08:11.195Z,57.01
2022-11-16T22:10:37.903Z,59.24
2022-11-16T22:13:04.888Z,65.11
2022-11-16T22:15:31.327Z,64.00
2022-11-16T22:17:57.868Z,53.78
2022-11-16T22:20:24.382Z,51.26
2022-11-16T22:22:50.905Z,53.15
2022-11-16T22:25:18.090Z,54.78
2022-11-16T22:28:13.878Z,56.30
2022-11-16T22:30:34.353Z,56.98
2022-11-16T22:33:00.840Z,59.95
2022-11-16T22:35:27.900Z,61.26
2022-11-16T22:37:55.439Z,66.15
2022-11-16T22:40:21.887Z,64.28
2022-11-16T22:42:48.388Z,53.67
2022-11-16T22:45:15.152Z,50.58
2022-11-16T22:47:41.723Z,52.45
2022-11-16T22:50:08.610Z,55.37
2022-11-16T22:52:35.151Z,57.83
2022-11-16T22:55:01.881Z,58.12
2022-11-16T22:57:28.433Z,61.42
2022-11-16T22:59:54.963Z,67.71
2022-11-16T23:02:21.561Z,64.98
2022-11-16T23:04:48.094Z,54.70
2022-11-16T23:07:14.645Z,50.39
2022-11-16T23:09:41.155Z,52.13
2022-11-16T23:12:27.016Z,53.76
2022-11-16T23:15:12.252Z,57.98
2022-11-16T23:17:38.761Z,59.36
2022-11-16T23:20:26.271Z,58.36
2022-11-16T23:23:11.384Z,62.00
2022-11-16T23:25:56.679Z,69.84
2022-11-16T23:28:23.376Z,61.97
2022-11-16T23:30:49.969Z,52.28
2022-11-16T23:33:16.540Z,49.54
2022-11-16T23:35:43.084Z,50.57
2022-11-16T23:38:09.607Z,52.25
2022-11-16T23:40:39.692Z,53.91
2022-11-16T23:43:28.476Z,56.21
2022-11-16T23:45:55.077Z,56.19
2022-11-16T23:48:21.613Z,58.78
2022-11-16T23:50:48.104Z,59.63
2022-11-16T23:53:14.662Z,65.03
2022-11-16T23:55:41.781Z,68.83
2022-11-16T23:58:14.103Z,60.74
